»·PEaware :: FDX1014 KPHX-KOAK

FDX1014 :: KPHX-KOAK

FLIGHT INFORMATION

Flight Status: Arrived
Operator:
Federal Express
More flights by this operator :: More flights under this callsign
Pilot: Jim M. (18055)
Aircraft: BOEING 777-200
(B772)
More flights by this aircraft type
Origin: KPHX Phoenix Sky Harbor Intl
United States
Destination: KOAK Metro Oakland Intl
United States
More flights between these airports :: More routes between these airports
Route: KEENS2 HRRBR CURIV J212 DECAS PMD GMN RGOOD SKIZME2
File this flight plan on PilotEdge
Remarks:
Altitude:
(Current/Filed)
36,000ft
Speed:
(Current/Filed)
450kts
Departed: 01-Dec-19 10:43 AM
Arrived: 01-Dec-19 12:29 PM
Distance/Time
Traveled:
560nm/1:46
Distance/Time
To Go:
Arrived

Flight Plot

Page will automatically refresh every two minutes.

Flight plan parsing failed; only flown route is shown


Map Options




Map Legend


Flown Route
Filed Route
Departure Airport
Arrival Airport
Navaid (VOR, NDB)
Fix

Horizontal Profiles

Position Reports

Time Latitude Longitude Heading Altitude Ground
Speed
01-Dec-19 10:04 33.424895 -112.016624 90 1148ft 0kts
01-Dec-19 10:05 33.424895 -112.016624 90 1148ft 0kts
01-Dec-19 10:06 33.424895 -112.016624 90 1148ft 0kts
01-Dec-19 10:07 33.424895 -112.016624 90 1148ft 0kts
01-Dec-19 10:08 33.424895 -112.016624 90 1148ft 0kts
01-Dec-19 10:09 33.424895 -112.016624 90 1148ft 0kts
01-Dec-19 10:10 33.424895 -112.016624 90 1148ft 0kts
01-Dec-19 10:11 33.424895 -112.016624 90 1148ft 0kts
01-Dec-19 10:12 33.424895 -112.016624 90 1148ft 0kts
01-Dec-19 10:13 33.424895 -112.016624 90 1148ft 0kts
01-Dec-19 10:14 33.424895 -112.016624 90 1148ft 0kts
01-Dec-19 10:15 33.424895 -112.016624 90 1148ft 0kts
01-Dec-19 10:16 33.424895 -112.016624 90 1148ft 0kts
01-Dec-19 10:17 33.424895 -112.016624 90 1148ft 0kts
01-Dec-19 10:18 33.424895 -112.016624 90 1148ft 0kts
01-Dec-19 10:19 33.424895 -112.016624 90 1148ft 0kts
01-Dec-19 10:20 33.424895 -112.016624 90 1148ft 0kts
01-Dec-19 10:21 33.424895 -112.016624 90 1148ft 0kts
01-Dec-19 10:22 33.424895 -112.016624 90 1148ft 0kts
01-Dec-19 10:23 33.424895 -112.016624 90 1148ft 0kts
01-Dec-19 10:24 33.424895 -112.016624 90 1148ft 0kts
01-Dec-19 10:25 33.424895 -112.016624 90 1148ft 0kts
01-Dec-19 10:26 33.424895 -112.016624 90 1148ft 0kts
01-Dec-19 10:27 33.424895 -112.016624 90 1148ft 0kts
01-Dec-19 10:28 33.424895 -112.016624 90 1148ft 0kts
01-Dec-19 10:29 33.424895 -112.016624 90 1148ft 0kts
01-Dec-19 10:30 33.424895 -112.016650 90 1148ft 1kts
01-Dec-19 10:31 33.424594 -112.017410 25 1148ft 2kts
01-Dec-19 10:32 33.424322 -112.017485 1 1148ft 0kts
01-Dec-19 10:33 33.424322 -112.017485 1 1148ft 0kts
01-Dec-19 10:34 33.424820 -112.017450 4 1148ft 2kts
01-Dec-19 10:35 33.425994 -112.017383 2 1148ft 4kts
01-Dec-19 10:36 33.427466 -112.017464 326 1148ft 6kts
01-Dec-19 10:37 33.427737 -112.019260 270 1148ft 5kts
01-Dec-19 10:38 33.427730 -112.022145 269 1148ft 12kts
01-Dec-19 10:39 33.427719 -112.025902 269 1148ft 7kts
01-Dec-19 10:40 33.428672 -112.026977 0 1148ft 8kts
01-Dec-19 10:41 33.430849 -112.026820 50 1148ft 9kts
01-Dec-19 10:42 33.431280 -112.002635 89 1413ft 178kts
01-Dec-19 10:43 33.432798 -111.937611 87 4726ft 224kts
01-Dec-19 10:44 33.422318 -111.862346 129 8186ft 242kts
01-Dec-19 10:46 33.362881 -111.867315 234 11569ft 246kts
01-Dec-19 10:47 33.356431 -111.947998 278 14296ft 279kts
01-Dec-19 10:48 33.368927 -112.053141 277 16041ft 356kts
01-Dec-19 10:49 33.387700 -112.175699 277 19004ft 385kts
01-Dec-19 10:50 33.407186 -112.304002 277 21669ft 397kts
01-Dec-19 10:51 33.426457 -112.436508 276 24578ft 407kts
01-Dec-19 10:52 33.445795 -112.570679 275 27614ft 411kts
01-Dec-19 10:53 33.451772 -112.707249 266 30253ft 414kts
01-Dec-19 10:54 33.460940 -112.841514 275 33166ft 407kts
01-Dec-19 10:55 33.485055 -112.973587 276 35329ft 404kts
01-Dec-19 10:56 33.509311 -113.104814 276 36249ft 402kts
01-Dec-19 10:57 33.534113 -113.235697 276 36261ft 402kts
01-Dec-19 10:58 33.558040 -113.366865 275 36258ft 401kts
01-Dec-19 10:59 33.581731 -113.497418 275 36261ft 401kts
01-Dec-19 11:00 33.606308 -113.628123 275 36264ft 400kts
01-Dec-19 11:01 33.630304 -113.758358 275 36279ft 400kts
01-Dec-19 11:02 33.654306 -113.888914 275 36286ft 399kts
01-Dec-19 11:03 33.678075 -114.019183 275 36287ft 399kts
01-Dec-19 11:04 33.701694 -114.149547 275 36289ft 399kts
01-Dec-19 11:04 33.721963 -114.258079 275 36290ft 399kts
01-Dec-19 11:05 33.745352 -114.388496 274 36291ft 400kts
01-Dec-19 11:07 33.772275 -114.540905 272 36291ft 397kts
01-Dec-19 11:08 33.781422 -114.671921 267 36289ft 394kts
01-Dec-19 11:08 33.786739 -114.782014 267 36280ft 395kts
01-Dec-19 11:09 33.793866 -114.913313 267 36280ft 394kts
01-Dec-19 11:11 33.802779 -115.067029 267 36280ft 395kts
01-Dec-19 11:11 33.809123 -115.176766 267 36278ft 394kts
01-Dec-19 11:12 33.815970 -115.308207 266 36278ft 393kts
01-Dec-19 11:13 33.823493 -115.439708 271 36274ft 398kts
01-Dec-19 11:14 33.859138 -115.569218 281 36268ft 411kts
01-Dec-19 11:15 33.900625 -115.697217 281 36266ft 409kts
01-Dec-19 11:16 33.941304 -115.824818 281 36262ft 409kts
01-Dec-19 11:17 33.982573 -115.952691 281 36263ft 409kts
01-Dec-19 11:18 34.023269 -116.080337 281 36262ft 408kts
01-Dec-19 11:19 34.063829 -116.208514 280 36272ft 408kts
01-Dec-19 11:20 34.104063 -116.336270 280 36274ft 407kts
01-Dec-19 11:21 34.144126 -116.464034 280 36270ft 408kts
01-Dec-19 11:22 34.184118 -116.592125 280 36256ft 407kts
01-Dec-19 11:23 34.223937 -116.720204 280 36243ft 406kts
01-Dec-19 11:24 34.263606 -116.848350 279 36240ft 407kts
01-Dec-19 11:25 34.303078 -116.976416 279 36239ft 406kts
01-Dec-19 11:26 34.342462 -117.104744 279 36240ft 407kts
01-Dec-19 11:27 34.381725 -117.233235 279 36243ft 406kts
01-Dec-19 11:28 34.420803 -117.361683 279 36247ft 408kts
01-Dec-19 11:29 34.459985 -117.491047 279 36251ft 408kts
01-Dec-19 11:30 34.498865 -117.619978 279 36248ft 407kts
01-Dec-19 11:31 34.537715 -117.748323 278 36251ft 402kts
01-Dec-19 11:32 34.576129 -117.877226 279 36272ft 413kts
01-Dec-19 11:33 34.614405 -118.006327 278 36268ft 399kts
01-Dec-19 11:34 34.648513 -118.134612 273 36295ft 399kts
01-Dec-19 11:35 34.675854 -118.266785 273 36298ft 406kts
01-Dec-19 11:36 34.703775 -118.396594 273 36280ft 390kts
01-Dec-19 11:37 34.732219 -118.525910 274 36249ft 400kts
01-Dec-19 11:38 34.760444 -118.656276 273 36231ft 398kts
01-Dec-19 11:39 34.788195 -118.786807 273 36229ft 399kts
01-Dec-19 11:40 34.844258 -118.909271 310 36228ft 480kts
01-Dec-19 11:41 34.957178 -118.996682 311 36216ft 465kts
01-Dec-19 11:42 35.062915 -119.089163 309 36195ft 470kts
01-Dec-19 11:43 35.168957 -119.182454 309 36179ft 470kts
01-Dec-19 11:44 35.274501 -119.275877 309 36170ft 468kts
01-Dec-19 11:45 35.379995 -119.369665 308 36168ft 467kts
01-Dec-19 11:46 35.484814 -119.463165 308 36157ft 467kts
01-Dec-19 11:47 35.589639 -119.556979 308 36156ft 466kts
01-Dec-19 11:48 35.694768 -119.651082 308 36151ft 468kts
01-Dec-19 11:49 35.799657 -119.745728 307 36154ft 467kts
01-Dec-19 11:50 35.904250 -119.840584 306 36156ft 462kts
01-Dec-19 11:51 35.995807 -119.945750 299 36161ft 447kts
01-Dec-19 11:52 36.084928 -120.053622 299 36001ft 446kts
01-Dec-19 11:53 36.174602 -120.160604 300 34395ft 451kts
01-Dec-19 11:54 36.265128 -120.268394 301 32609ft 454kts
01-Dec-19 11:55 36.353917 -120.374427 302 31725ft 426kts
01-Dec-19 11:56 36.438868 -120.476870 304 29551ft 421kts
01-Dec-19 11:57 36.520725 -120.575848 305 28300ft 393kts
01-Dec-19 11:58 36.603914 -120.669453 309 26736ft 411kts
01-Dec-19 11:59 36.688804 -120.763416 309 25015ft 406kts
01-Dec-19 12:00 36.771976 -120.856072 310 23334ft 397kts
01-Dec-19 12:01 36.853658 -120.946704 310 21696ft 387kts
01-Dec-19 12:02 36.933429 -121.034900 310 20103ft 377kts
01-Dec-19 12:03 37.010646 -121.121021 309 18553ft 368kts
01-Dec-19 12:04 37.086137 -121.205607 309 17042ft 359kts
01-Dec-19 12:05 37.168764 -121.277612 325 15532ft 369kts
01-Dec-19 12:06 37.262100 -121.329479 328 14009ft 362kts
01-Dec-19 12:07 37.353139 -121.380350 329 12522ft 353kts
01-Dec-19 12:08 37.442085 -121.430298 329 11048ft 346kts
01-Dec-19 12:09 37.526135 -121.477516 329 9776ft 313kts
01-Dec-19 12:10 37.602916 -121.520781 329 8954ft 299kts
01-Dec-19 12:11 37.678243 -121.564097 324 8143ft 294kts
01-Dec-19 12:12 37.740339 -121.626649 309 8003ft 282kts
01-Dec-19 12:13 37.798767 -121.695381 309 7985ft 288kts
01-Dec-19 12:14 37.851857 -121.771810 290 7062ft 279kts
01-Dec-19 12:15 37.881795 -121.857828 282 6778ft 259kts
01-Dec-19 12:16 37.909552 -121.943262 279 5633ft 258kts
01-Dec-19 12:17 37.920604 -122.031221 265 5075ft 250kts
01-Dec-19 12:18 37.925681 -122.118916 268 4342ft 243kts
01-Dec-19 12:19 37.930776 -122.203563 268 3995ft 241kts
01-Dec-19 12:20 37.935579 -122.284898 268 4021ft 222kts
01-Dec-19 12:21 37.919388 -122.350483 215 2870ft 206kts
01-Dec-19 12:22 37.875014 -122.391671 213 2127ft 183kts
01-Dec-19 12:23 37.830024 -122.398864 149 1982ft 180kts
01-Dec-19 12:24 37.796359 -122.356721 133 1967ft 155kts
01-Dec-19 12:25 37.771525 -122.319411 132 1479ft 130kts
01-Dec-19 12:26 37.748578 -122.284932 131 836ft 127kts
01-Dec-19 12:27 37.725913 -122.250770 130 216ft 126kts
01-Dec-19 12:28 37.710742 -122.228123 130 19ft 34kts
01-Dec-19 12:29 37.706398 -122.221044 97 19ft 17kts
01-Dec-19 12:30 37.707104 -122.218917 328 19ft 11kts
01-Dec-19 12:31 37.710037 -122.223478 310 19ft 14kts
01-Dec-19 12:32 37.712213 -122.223115 45 19ft 13kts
01-Dec-19 12:33 37.715068 -122.219471 44 19ft 11kts
01-Dec-19 12:34 37.717227 -122.218102 67 19ft 13kts
01-Dec-19 12:35 37.719143 -122.216968 302 19ft 10kts
01-Dec-19 12:36 37.719360 -122.217367 305 19ft 0kts
01-Dec-19 12:37 37.719360 -122.217367 305 19ft 0kts
01-Dec-19 12:38 37.719360 -122.217367 305 19ft 0kts

Navigation Log

Ident Type
Flight plan parsing failed, navigation log unavailable